Vesta, MN

2:00 PM CDT on September 01, 2014 (GMT -0500)
Redwood Falls Municipal | Change Station
CLOSE
Current Station
Airport
Location: Redwood Falls,
Elevation: 1024 ft
Nearby Weather Stations

Elev 1024 ft 44.55 °N, 95.08 °W | Updated 7 minutes ago

Clear
Clear
76 °F
Feels Like 76 °F
N
13
Wind Variable Wind from WNW
Gusts 18 mph

Today
High -- | Low -- °F
--% Chance of Precip.
Yesterday
High -- | Low -- °F
Precip. -- in
6:44 AM 7:58 PM
Waxing Crescent, 43% visible
Pressure 29.78 in
Visibility 10.0 miles
Clouds Clear
Dew Point 56 °F
Humidity 50%
Rainfall 0.72 in
Snow Depth Not available.
UV 8 out of 12
Pollen 7.80 out of 12
Air Quality Not available.
Flu Activity Not available.
METAR KRWF 011853Z AUTO 30011G16KT 10SM CLR 24/13 A2979 RMK AO2 SLP084 T02440133

More Conditions Fewer Conditions

Pressure 29.78 in
Visibility 10.0 miles
Clouds Clear
Dew Point 56 °F
Humidity 50%
Rainfall 0.72 in
Snow Depth Not available.
UV 8 out of 12
Pollen 7.80 out of 12
Air Quality Not available.
Flu Activity Not available.
METAR KRWF 011853Z AUTO 30011G16KT 10SM CLR 24/13 A2979 RMK AO2 SLP084 T02440133

More Conditions Fewer Conditions

10-Day Weather Forecast

Almanac

Astronomy

Sep. 01, 2014 Rise Set
Actual Time 6:44 AM CDT 7:58 PM CDT
Civil Twilight 6:14 AM CDT 8:27 PM CDT
Nautical Twilight 5:38 AM CDT 9:03 PM CDT
Astronomical Twilight 4:59 AM CDT 9:41 PM CDT
Moon 1:46 PM CDT 11:43 PM CDT
Length of Visible Light 14h 13m
Length of Day
13h 13m
Tomorrow will be 2m 58s shorter.
Waxing Crescent, 43% of the Moon is Illuminated
Today
Waxing Crescent
Sep 2
First Quarter
Sep 8
Full
Sep 15
Last Quarter
Sep 24
New

Today's Extremes

State Highs State Lows

Community

WunderPhotos

Upload Photos

1,749,367 photos uploaded!

WunderBlogs® & News

Nearby

Snow Depth

Station Depth Elevation
No new snow has been reported.

Earthquake Activity

City Distance Mag. Time & Date
No recent earthquake activity has been reported nearby.
Minimum magnitude displayed is 2.5.

Coastal Water Temperatures

Place Temperature
No Stations Reporting

Nearby Weather Stations